Terminal Aerodrome Forecast
Issued by NWS Charleston, WV

Current Version | Previous Version | Text Only | Print | Product List | Glossary Off
Versions: 1 2 3 4 5 6 7 8 9 10 11 12 13 14 15 16 17 18 19 20 21 22 23 24

000
FTUS41 KRLX 010604 RRA
TAFCRW
TAF
KCRW 010604Z 0106/0206 31004KT 6SM BR OVC020
     FM011000 34003KT 4SM BR BKN009 OVC015
     FM011600 36004KT 4SM BR VCSH OVC014
     FM012000 01004KT 3SM SHRA BR OVC015
     FM020500 VRB03KT 2SM -SHRA BR OVC010=

USA.gov is the U.S. government's official web portal to all federal, state and local government web resources and services.